Terminal Aerodrome Forecast
Issued by NWS

Home | Current Version | Previous Version | Text Only | Print | Product List | Glossary On
Versions: 1 2 3 4 5 6 7 8 9 10 11 12 13 14 15 16 17 18 19 20 21 22 23 24 25 26 27 28
000
FTUS45 KGJT 261733
TAFMTJ
TAF
KMTJ 261733Z 2618/2718 33006KT 6SM BR VCSH SCT015 OVC040
      TEMPO 2618/2621 5SM BR BKN015 OVC030
     FM270200 13005KT P6SM VCSH OVC050
     FM270600 28005KT P6SM VCSH BKN050
     FM271300 13004KT P6SM BKN100=

USA.gov is the U.S. government's official web portal to all federal, state and local government web resources and services.